sensor_id;sensor_type;location;lat;lon;timestamp;temperature;humidity
52495;DHT22;38405;53.212;5.660;2022-10-19T00:01:42;9.30;99.90
52495;DHT22;38405;53.212;5.660;2022-10-19T00:04:08;9.40;99.90
52495;DHT22;38405;53.212;5.660;2022-10-19T00:06:35;9.40;99.90
52495;DHT22;38405;53.212;5.660;2022-10-19T00:09:09;9.40;99.90
52495;DHT22;38405;53.212;5.660;2022-10-19T00:11:38;9.60;99.90
52495;DHT22;38405;53.212;5.660;2022-10-19T00:14:05;9.60;99.90
52495;DHT22;38405;53.212;5.660;2022-10-19T00:16:33;9.70;99.90
52495;DHT22;38405;53.212;5.660;2022-10-19T00:19:01;9.70;99.90
52495;DHT22;38405;53.212;5.660;2022-10-19T00:21:28;9.80;99.90
52495;DHT22;38405;53.212;5.660;2022-10-19T00:23:53;9.80;99.90
52495;DHT22;38405;53.212;5.660;2022-10-19T00:26:19;9.80;99.90
52495;DHT22;38405;53.212;5.660;2022-10-19T00:28:44;9.80;99.90
52495;DHT22;38405;53.212;5.660;2022-10-19T00:31:13;9.90;99.90
52495;DHT22;38405;53.212;5.660;2022-10-19T00:33:39;9.90;99.90
52495;DHT22;38405;53.212;5.660;2022-10-19T00:36:05;10.00;99.90
52495;DHT22;38405;53.212;5.660;2022-10-19T00:38:31;10.00;99.90
52495;DHT22;38405;53.212;5.660;2022-10-19T00:40:57;10.10;99.90
52495;DHT22;38405;53.212;5.660;2022-10-19T00:43:25;10.20;99.90
52495;DHT22;38405;53.212;5.660;2022-10-19T00:45:51;10.30;99.90
52495;DHT22;38405;53.212;5.660;2022-10-19T00:48:26;10.50;99.90
52495;DHT22;38405;53.212;5.660;2022-10-19T00:50:55;10.50;99.90
52495;DHT22;38405;53.212;5.660;2022-10-19T00:53:22;10.60;99.90
52495;DHT22;38405;53.212;5.660;2022-10-19T00:55:50;10.70;99.90
52495;DHT22;38405;53.212;5.660;2022-10-19T00:58:16;10.60;99.90
52495;DHT22;38405;53.212;5.660;2022-10-19T01:00:43;10.70;99.90
52495;DHT22;38405;53.212;5.660;2022-10-19T01:03:09;10.70;99.90
52495;DHT22;38405;53.212;5.660;2022-10-19T01:05:35;10.70;99.90
52495;DHT22;38405;53.212;5.660;2022-10-19T01:08:01;10.70;99.90
52495;DHT22;38405;53.212;5.660;2022-10-19T01:11:00;10.80;99.90
52495;DHT22;38405;53.212;5.660;2022-10-19T01:16:39;11.10;99.90
52495;DHT22;38405;53.212;5.660;2022-10-19T01:19:38;11.20;99.90
52495;DHT22;38405;53.212;5.660;2022-10-19T01:25:22;11.30;99.90
52495;DHT22;38405;53.212;5.660;2022-10-19T01:30:51;11.40;99.90
52495;DHT22;38405;53.212;5.660;2022-10-19T01:33:44;11.50;99.90
52495;DHT22;38405;53.212;5.660;2022-10-19T01:41:29;11.50;99.90
52495;DHT22;38405;53.212;5.660;2022-10-19T01:44:00;11.50;99.90
52495;DHT22;38405;53.212;5.660;2022-10-19T01:46:39;11.40;99.90
52495;DHT22;38405;53.212;5.660;2022-10-19T01:51:44;11.40;99.90
52495;DHT22;38405;53.212;5.660;2022-10-19T01:54:12;11.60;99.90
52495;DHT22;38405;53.212;5.660;2022-10-19T01:56:41;11.40;99.90
52495;DHT22;38405;53.212;5.660;2022-10-19T01:59:10;11.30;99.90
52495;DHT22;38405;53.212;5.660;2022-10-19T02:01:41;11.30;99.90
52495;DHT22;38405;53.212;5.660;2022-10-19T02:04:09;11.60;99.90
52495;DHT22;38405;53.212;5.660;2022-10-19T02:06:36;11.40;99.90
52495;DHT22;38405;53.212;5.660;2022-10-19T02:09:02;11.30;99.90
52495;DHT22;38405;53.212;5.660;2022-10-19T02:11:28;11.30;99.90
52495;DHT22;38405;53.212;5.660;2022-10-19T02:13:59;11.30;99.90
52495;DHT22;38405;53.212;5.660;2022-10-19T02:16:33;11.30;99.90
52495;DHT22;38405;53.212;5.660;2022-10-19T02:19:01;11.30;99.90
52495;DHT22;38405;53.212;5.660;2022-10-19T02:21:27;11.30;99.90
52495;DHT22;38405;53.212;5.660;2022-10-19T02:23:53;11.40;99.90
52495;DHT22;38405;53.212;5.660;2022-10-19T02:26:19;11.50;99.90
52495;DHT22;38405;53.212;5.660;2022-10-19T02:28:46;11.90;99.90
52495;DHT22;38405;53.212;5.660;2022-10-19T02:31:12;11.40;99.90
52495;DHT22;38405;53.212;5.660;2022-10-19T02:33:38;11.40;99.90
52495;DHT22;38405;53.212;5.660;2022-10-19T02:36:04;11.50;99.90
52495;DHT22;38405;53.212;5.660;2022-10-19T02:38:30;11.30;99.90
52495;DHT22;38405;53.212;5.660;2022-10-19T02:41:27;11.20;99.90
52495;DHT22;38405;53.212;5.660;2022-10-19T02:43:56;11.20;99.90
52495;DHT22;38405;53.212;5.660;2022-10-19T02:46:39;11.20;99.90
52495;DHT22;38405;53.212;5.660;2022-10-19T02:49:07;11.20;99.90
52495;DHT22;38405;53.212;5.660;2022-10-19T02:51:55;11.20;99.90
52495;DHT22;38405;53.212;5.660;2022-10-19T02:54:23;11.20;99.90
52495;DHT22;38405;53.212;5.660;2022-10-19T02:56:48;11.20;99.90
52495;DHT22;38405;53.212;5.660;2022-10-19T02:59:14;11.20;99.90
52495;DHT22;38405;53.212;5.660;2022-10-19T03:01:40;11.30;99.90
52495;DHT22;38405;53.212;5.660;2022-10-19T03:04:05;11.30;99.90
52495;DHT22;38405;53.212;5.660;2022-10-19T03:06:31;11.20;99.90
52495;DHT22;38405;53.212;5.660;2022-10-19T03:08:56;11.30;99.90
52495;DHT22;38405;53.212;5.660;2022-10-19T03:11:22;11.30;99.90
52495;DHT22;38405;53.212;5.660;2022-10-19T03:13:48;11.30;99.90
52495;DHT22;38405;53.212;5.660;2022-10-19T03:16:13;11.20;99.90
52495;DHT22;38405;53.212;5.660;2022-10-19T03:18:39;11.40;99.90
52495;DHT22;38405;53.212;5.660;2022-10-19T03:21:07;11.20;99.90
52495;DHT22;38405;53.212;5.660;2022-10-19T03:23:33;11.10;99.90
52495;DHT22;38405;53.212;5.660;2022-10-19T03:25:59;11.10;99.90
52495;DHT22;38405;53.212;5.660;2022-10-19T03:28:25;11.00;99.90
52495;DHT22;38405;53.212;5.660;2022-10-19T03:30:50;10.90;99.90
52495;DHT22;38405;53.212;5.660;2022-10-19T03:33:16;11.00;99.90
52495;DHT22;38405;53.212;5.660;2022-10-19T03:35:41;10.80;99.90
52495;DHT22;38405;53.212;5.660;2022-10-19T03:38:07;10.90;99.90
52495;DHT22;38405;53.212;5.660;2022-10-19T03:40:33;10.60;99.90
52495;DHT22;38405;53.212;5.660;2022-10-19T03:42:58;10.50;99.90
52495;DHT22;38405;53.212;5.660;2022-10-19T03:45:24;10.50;99.90
52495;DHT22;38405;53.212;5.660;2022-10-19T03:47:50;10.40;99.90
52495;DHT22;38405;53.212;5.660;2022-10-19T03:50:16;10.40;99.90
52495;DHT22;38405;53.212;5.660;2022-10-19T03:52:43;10.40;99.90
52495;DHT22;38405;53.212;5.660;2022-10-19T03:55:09;10.30;99.90
52495;DHT22;38405;53.212;5.660;2022-10-19T03:57:37;10.30;99.90
52495;DHT22;38405;53.212;5.660;2022-10-19T04:00:04;10.30;99.90
52495;DHT22;38405;53.212;5.660;2022-10-19T04:02:29;10.30;99.90
52495;DHT22;38405;53.212;5.660;2022-10-19T04:04:55;10.30;99.90
52495;DHT22;38405;53.212;5.660;2022-10-19T04:07:20;10.30;99.90
52495;DHT22;38405;53.212;5.660;2022-10-19T04:09:46;10.30;99.90
52495;DHT22;38405;53.212;5.660;2022-10-19T04:12:12;10.30;99.90
52495;DHT22;38405;53.212;5.660;2022-10-19T04:14:38;10.20;99.90
52495;DHT22;38405;53.212;5.660;2022-10-19T04:17:03;10.10;99.90
52495;DHT22;38405;53.212;5.660;2022-10-19T04:19:29;10.10;99.90
52495;DHT22;38405;53.212;5.660;2022-10-19T04:21:55;10.10;99.90
52495;DHT22;38405;53.212;5.660;2022-10-19T04:24:21;10.10;99.90
52495;DHT22;38405;53.212;5.660;2022-10-19T04:26:49;10.00;99.90
52495;DHT22;38405;53.212;5.660;2022-10-19T04:29:16;10.00;99.90
52495;DHT22;38405;53.212;5.660;2022-10-19T04:31:43;9.90;99.90
52495;DHT22;38405;53.212;5.660;2022-10-19T04:34:09;9.80;99.90
52495;DHT22;38405;53.212;5.660;2022-10-19T04:36:35;9.80;99.90
52495;DHT22;38405;53.212;5.660;2022-10-19T04:39:01;10.10;99.90
52495;DHT22;38405;53.212;5.660;2022-10-19T04:41:27;10.00;99.90
52495;DHT22;38405;53.212;5.660;2022-10-19T04:43:57;9.70;99.90
52495;DHT22;38405;53.212;5.660;2022-10-19T04:46:25;9.70;99.90
52495;DHT22;38405;53.212;5.660;2022-10-19T04:48:51;9.90;99.90
52495;DHT22;38405;53.212;5.660;2022-10-19T04:51:17;9.60;99.90
52495;DHT22;38405;53.212;5.660;2022-10-19T04:53:44;10.00;99.90
52495;DHT22;38405;53.212;5.660;2022-10-19T04:56:19;9.60;99.90
52495;DHT22;38405;53.212;5.660;2022-10-19T04:58:45;9.60;99.90
52495;DHT22;38405;53.212;5.660;2022-10-19T05:01:21;9.90;99.90
52495;DHT22;38405;53.212;5.660;2022-10-19T05:03:47;9.70;99.90
52495;DHT22;38405;53.212;5.660;2022-10-19T05:06:13;9.70;99.90
52495;DHT22;38405;53.212;5.660;2022-10-19T05:08:40;9.70;99.90
52495;DHT22;38405;53.212;5.660;2022-10-19T05:11:10;10.30;99.90
52495;DHT22;38405;53.212;5.660;2022-10-19T05:13:36;9.80;99.90
52495;DHT22;38405;53.212;5.660;2022-10-19T05:16:04;9.90;99.90
52495;DHT22;38405;53.212;5.660;2022-10-19T05:18:30;9.90;99.90
52495;DHT22;38405;53.212;5.660;2022-10-19T05:21:01;9.90;99.90
52495;DHT22;38405;53.212;5.660;2022-10-19T05:23:27;10.00;99.90
52495;DHT22;38405;53.212;5.660;2022-10-19T05:26:05;10.00;99.90
52495;DHT22;38405;53.212;5.660;2022-10-19T05:28:31;10.10;99.90
52495;DHT22;38405;53.212;5.660;2022-10-19T05:31:07;10.10;99.90
52495;DHT22;38405;53.212;5.660;2022-10-19T05:33:33;10.10;99.90
52495;DHT22;38405;53.212;5.660;2022-10-19T05:35:59;10.10;99.90
52495;DHT22;38405;53.212;5.660;2022-10-19T05:38:24;10.10;99.90
52495;DHT22;38405;53.212;5.660;2022-10-19T05:40:50;10.10;99.90
52495;DHT22;38405;53.212;5.660;2022-10-19T05:43:15;10.10;99.90
52495;DHT22;38405;53.212;5.660;2022-10-19T05:45:41;10.10;99.90
52495;DHT22;38405;53.212;5.660;2022-10-19T05:48:06;10.10;99.90
52495;DHT22;38405;53.212;5.660;2022-10-19T05:50:32;10.10;99.90
52495;DHT22;38405;53.212;5.660;2022-10-19T05:52:58;10.10;99.90
52495;DHT22;38405;53.212;5.660;2022-10-19T05:55:23;10.20;99.90
52495;DHT22;38405;53.212;5.660;2022-10-19T05:57:49;10.20;99.90
52495;DHT22;38405;53.212;5.660;2022-10-19T06:00:14;10.20;99.90
52495;DHT22;38405;53.212;5.660;2022-10-19T06:02:40;10.20;99.90
52495;DHT22;38405;53.212;5.660;2022-10-19T06:05:06;10.30;99.90
52495;DHT22;38405;53.212;5.660;2022-10-19T06:07:32;10.20;99.90
52495;DHT22;38405;53.212;5.660;2022-10-19T06:09:57;10.20;99.90
52495;DHT22;38405;53.212;5.660;2022-10-19T06:12:23;10.10;99.90
52495;DHT22;38405;53.212;5.660;2022-10-19T06:14:52;10.30;99.90
52495;DHT22;38405;53.212;5.660;2022-10-19T06:17:20;10.20;99.90
52495;DHT22;38405;53.212;5.660;2022-10-19T06:19:46;10.20;99.90
52495;DHT22;38405;53.212;5.660;2022-10-19T06:22:11;10.30;99.90
52495;DHT22;38405;53.212;5.660;2022-10-19T06:24:37;10.20;99.90
52495;DHT22;38405;53.212;5.660;2022-10-19T06:27:03;10.40;99.90
52495;DHT22;38405;53.212;5.660;2022-10-19T06:29:30;10.20;99.90
52495;DHT22;38405;53.212;5.660;2022-10-19T06:31:56;10.30;99.90
52495;DHT22;38405;53.212;5.660;2022-10-19T06:34:24;10.30;99.90
52495;DHT22;38405;53.212;5.660;2022-10-19T06:36:49;10.30;99.90
52495;DHT22;38405;53.212;5.660;2022-10-19T06:39:15;10.40;99.90
52495;DHT22;38405;53.212;5.660;2022-10-19T06:41:41;10.40;99.90
52495;DHT22;38405;53.212;5.660;2022-10-19T06:44:07;10.40;99.90
52495;DHT22;38405;53.212;5.660;2022-10-19T06:46:33;10.70;99.90
52495;DHT22;38405;53.212;5.660;2022-10-19T06:49:00;10.50;99.90
52495;DHT22;38405;53.212;5.660;2022-10-19T06:51:28;10.50;99.90
52495;DHT22;38405;53.212;5.660;2022-10-19T06:53:54;10.60;99.90
52495;DHT22;38405;53.212;5.660;2022-10-19T06:56:20;10.70;99.90
52495;DHT22;38405;53.212;5.660;2022-10-19T06:58:46;10.70;99.90
52495;DHT22;38405;53.212;5.660;2022-10-19T07:01:12;10.90;99.90
52495;DHT22;38405;53.212;5.660;2022-10-19T07:03:39;10.90;99.90
52495;DHT22;38405;53.212;5.660;2022-10-19T07:06:07;10.90;99.90
52495;DHT22;38405;53.212;5.660;2022-10-19T07:08:35;11.00;99.90
52495;DHT22;38405;53.212;5.660;2022-10-19T07:11:03;11.00;99.90
52495;DHT22;38405;53.212;5.660;2022-10-19T07:13:29;11.10;99.90
52495;DHT22;38405;53.212;5.660;2022-10-19T07:16:00;11.20;99.90
52495;DHT22;38405;53.212;5.660;2022-10-19T07:18:28;11.20;99.90
52495;DHT22;38405;53.212;5.660;2022-10-19T07:20:58;11.20;99.90
52495;DHT22;38405;53.212;5.660;2022-10-19T07:23:26;11.30;99.90
52495;DHT22;38405;53.212;5.660;2022-10-19T07:25:53;11.40;99.90
52495;DHT22;38405;53.212;5.660;2022-10-19T07:28:20;11.40;99.90
52495;DHT22;38405;53.212;5.660;2022-10-19T07:30:46;11.50;99.90
52495;DHT22;38405;53.212;5.660;2022-10-19T07:33:12;11.70;99.90
52495;DHT22;38405;53.212;5.660;2022-10-19T07:35:38;11.80;99.90
52495;DHT22;38405;53.212;5.660;2022-10-19T07:38:03;11.90;99.90
52495;DHT22;38405;53.212;5.660;2022-10-19T07:40:29;12.10;99.90
52495;DHT22;38405;53.212;5.660;2022-10-19T07:42:54;12.10;99.90
52495;DHT22;38405;53.212;5.660;2022-10-19T07:45:20;12.30;99.90
52495;DHT22;38405;53.212;5.660;2022-10-19T07:47:46;12.30;99.90
52495;DHT22;38405;53.212;5.660;2022-10-19T07:50:11;12.50;99.90
52495;DHT22;38405;53.212;5.660;2022-10-19T07:52:37;12.90;99.90
52495;DHT22;38405;53.212;5.660;2022-10-19T07:55:03;13.10;99.90
52495;DHT22;38405;53.212;5.660;2022-10-19T07:57:28;13.10;99.90
52495;DHT22;38405;53.212;5.660;2022-10-19T07:59:54;13.20;99.90
52495;DHT22;38405;53.212;5.660;2022-10-19T08:02:20;13.30;99.90
52495;DHT22;38405;53.212;5.660;2022-10-19T08:04:45;13.40;99.90
52495;DHT22;38405;53.212;5.660;2022-10-19T08:07:11;13.80;99.90
52495;DHT22;38405;53.212;5.660;2022-10-19T08:09:36;13.50;99.90
52495;DHT22;38405;53.212;5.660;2022-10-19T08:12:03;13.60;99.90
52495;DHT22;38405;53.212;5.660;2022-10-19T08:14:29;13.50;99.90
52495;DHT22;38405;53.212;5.660;2022-10-19T08:16:54;13.60;99.90
52495;DHT22;38405;53.212;5.660;2022-10-19T08:19:20;13.50;99.90
52495;DHT22;38405;53.212;5.660;2022-10-19T08:21:47;13.40;99.90
52495;DHT22;38405;53.212;5.660;2022-10-19T08:24:14;13.40;99.90
52495;DHT22;38405;53.212;5.660;2022-10-19T08:26:40;13.30;99.90
52495;DHT22;38405;53.212;5.660;2022-10-19T08:29:13;13.30;99.90
52495;DHT22;38405;53.212;5.660;2022-10-19T08:31:40;13.30;99.90
52495;DHT22;38405;53.212;5.660;2022-10-19T08:34:07;13.30;99.90
52495;DHT22;38405;53.212;5.660;2022-10-19T08:36:33;13.30;99.90
52495;DHT22;38405;53.212;5.660;2022-10-19T08:39:00;13.30;99.90
52495;DHT22;38405;53.212;5.660;2022-10-19T08:49:56;13.50;99.90
52495;DHT22;38405;53.212;5.660;2022-10-19T08:52:31;13.40;99.90
52495;DHT22;38405;53.212;5.660;2022-10-19T08:55:00;13.60;99.90
52495;DHT22;38405;53.212;5.660;2022-10-19T09:00:00;13.40;99.90
52495;DHT22;38405;53.212;5.660;2022-10-19T09:07:52;13.30;99.90
52495;DHT22;38405;53.212;5.660;2022-10-19T09:10:24;13.30;99.90
52495;DHT22;38405;53.212;5.660;2022-10-19T09:12:59;13.30;99.90
52495;DHT22;38405;53.212;5.660;2022-10-19T09:15:41;13.30;99.90
52495;DHT22;38405;53.212;5.660;2022-10-19T09:18:10;13.30;99.90
52495;DHT22;38405;53.212;5.660;2022-10-19T09:20:39;13.30;99.90
52495;DHT22;38405;53.212;5.660;2022-10-19T09:23:19;13.30;99.90
52495;DHT22;38405;53.212;5.660;2022-10-19T09:25:47;13.30;99.90
52495;DHT22;38405;53.212;5.660;2022-10-19T09:31:01;13.30;99.90
52495;DHT22;38405;53.212;5.660;2022-10-19T09:33:32;13.50;99.90
52495;DHT22;38405;53.212;5.660;2022-10-19T09:35:59;13.50;99.90
52495;DHT22;38405;53.212;5.660;2022-10-19T09:38:27;13.50;99.90
52495;DHT22;38405;53.212;5.660;2022-10-19T09:40:54;13.50;99.90
52495;DHT22;38405;53.212;5.660;2022-10-19T09:43:21;13.60;99.90
52495;DHT22;38405;53.212;5.660;2022-10-19T09:45:51;13.80;99.90
52495;DHT22;38405;53.212;5.660;2022-10-19T09:51:25;13.70;99.90
52495;DHT22;38405;53.212;5.660;2022-10-19T09:54:03;13.80;99.90
52495;DHT22;38405;53.212;5.660;2022-10-19T09:56:28;13.80;99.90
52495;DHT22;38405;53.212;5.660;2022-10-19T09:58:56;13.80;99.90
52495;DHT22;38405;53.212;5.660;2022-10-19T10:01:34;14.00;99.90
52495;DHT22;38405;53.212;5.660;2022-10-19T10:04:06;13.80;99.90
52495;DHT22;38405;53.212;5.660;2022-10-19T10:06:33;13.70;99.90
52495;DHT22;38405;53.212;5.660;2022-10-19T10:08:59;13.60;99.90
52495;DHT22;38405;53.212;5.660;2022-10-19T10:11:35;13.70;99.90
52495;DHT22;38405;53.212;5.660;2022-10-19T10:14:29;13.90;99.90
52495;DHT22;38405;53.212;5.660;2022-10-19T10:17:01;14.10;99.90
52495;DHT22;38405;53.212;5.660;2022-10-19T10:19:29;14.10;99.90
52495;DHT22;38405;53.212;5.660;2022-10-19T10:21:57;14.20;99.90
52495;DHT22;38405;53.212;5.660;2022-10-19T10:24:26;14.20;99.90
52495;DHT22;38405;53.212;5.660;2022-10-19T10:26:55;14.20;99.90
52495;DHT22;38405;53.212;5.660;2022-10-19T10:29:29;14.20;99.90
52495;DHT22;38405;53.212;5.660;2022-10-19T10:31:59;14.10;99.90
52495;DHT22;38405;53.212;5.660;2022-10-19T10:36:58;14.10;99.90
52495;DHT22;38405;53.212;5.660;2022-10-19T10:39:25;14.00;99.90
52495;DHT22;38405;53.212;5.660;2022-10-19T10:41:53;14.00;99.90
52495;DHT22;38405;53.212;5.660;2022-10-19T10:44:23;14.00;99.90
52495;DHT22;38405;53.212;5.660;2022-10-19T10:46:58;14.00;99.90
52495;DHT22;38405;53.212;5.660;2022-10-19T10:49:28;13.90;99.90
52495;DHT22;38405;53.212;5.660;2022-10-19T10:51:56;14.10;99.90
52495;DHT22;38405;53.212;5.660;2022-10-19T10:54:30;14.30;99.90
52495;DHT22;38405;53.212;5.660;2022-10-19T10:57:14;14.20;99.90
52495;DHT22;38405;53.212;5.660;2022-10-19T10:59:54;14.30;99.90
52495;DHT22;38405;53.212;5.660;2022-10-19T11:05:23;14.70;99.90
52495;DHT22;38405;53.212;5.660;2022-10-19T11:07:55;14.70;99.90
52495;DHT22;38405;53.212;5.660;2022-10-19T11:10:24;14.60;99.90
52495;DHT22;38405;53.212;5.660;2022-10-19T11:15:58;14.90;99.90
52495;DHT22;38405;53.212;5.660;2022-10-19T11:18:30;14.70;99.90
52495;DHT22;38405;53.212;5.660;2022-10-19T11:23:53;14.40;99.90
52495;DHT22;38405;53.212;5.660;2022-10-19T11:32:15;14.10;99.90
52495;DHT22;38405;53.212;5.660;2022-10-19T11:40:42;13.90;99.90
52495;DHT22;38405;53.212;5.660;2022-10-19T11:57:18;13.80;99.90
52495;DHT22;38405;53.212;5.660;2022-10-19T12:00:05;14.00;99.90
52495;DHT22;38405;53.212;5.660;2022-10-19T12:05:22;14.10;99.90
52495;DHT22;38405;53.212;5.660;2022-10-19T12:11:23;14.20;99.90
52495;DHT22;38405;53.212;5.660;2022-10-19T12:13:48;14.20;99.90
52495;DHT22;38405;53.212;5.660;2022-10-19T12:16:16;14.20;99.90
52495;DHT22;38405;53.212;5.660;2022-10-19T12:18:56;14.20;99.90
52495;DHT22;38405;53.212;5.660;2022-10-19T12:21:35;14.50;99.90
52495;DHT22;38405;53.212;5.660;2022-10-19T12:24:04;14.80;99.90
52495;DHT22;38405;53.212;5.660;2022-10-19T12:26:34;15.10;99.90
52495;DHT22;38405;53.212;5.660;2022-10-19T12:29:15;15.40;99.90
52495;DHT22;38405;53.212;5.660;2022-10-19T12:31:43;15.30;99.90
52495;DHT22;38405;53.212;5.660;2022-10-19T12:37:10;15.20;99.90
52495;DHT22;38405;53.212;5.660;2022-10-19T12:39:55;15.00;99.90
52495;DHT22;38405;53.212;5.660;2022-10-19T12:42:28;14.80;99.90
52495;DHT22;38405;53.212;5.660;2022-10-19T12:56:11;14.00;99.90
52495;DHT22;38405;53.212;5.660;2022-10-19T13:03:44;14.20;99.90
52495;DHT22;38405;53.212;5.660;2022-10-19T13:06:29;14.30;99.90
52495;DHT22;38405;53.212;5.660;2022-10-19T13:09:02;14.20;99.90
52495;DHT22;38405;53.212;5.660;2022-10-19T13:11:28;14.20;99.90
52495;DHT22;38405;53.212;5.660;2022-10-19T13:21:48;14.10;99.90
52495;DHT22;38405;53.212;5.660;2022-10-19T13:32:34;13.70;99.90
52495;DHT22;38405;53.212;5.660;2022-10-19T13:49:36;14.00;99.90
52495;DHT22;38405;53.212;5.660;2022-10-19T13:51:54;13.80;99.90
52495;DHT22;38405;53.212;5.660;2022-10-19T13:57:45;13.80;99.90
52495;DHT22;38405;53.212;5.660;2022-10-19T14:03:23;13.80;99.90
52495;DHT22;38405;53.212;5.660;2022-10-19T14:06:14;13.80;99.90
52495;DHT22;38405;53.212;5.660;2022-10-19T14:09:22;13.80;99.90
52495;DHT22;38405;53.212;5.660;2022-10-19T14:11:52;13.80;99.90
52495;DHT22;38405;53.212;5.660;2022-10-19T14:14:21;13.80;99.90
52495;DHT22;38405;53.212;5.660;2022-10-19T14:17:01;13.80;99.90
52495;DHT22;38405;53.212;5.660;2022-10-19T14:19:39;13.80;99.90
52495;DHT22;38405;53.212;5.660;2022-10-19T14:24:49;13.70;99.90
52495;DHT22;38405;53.212;5.660;2022-10-19T14:27:21;13.70;99.90
52495;DHT22;38405;53.212;5.660;2022-10-19T14:29:49;13.80;99.90
52495;DHT22;38405;53.212;5.660;2022-10-19T14:32:16;13.80;99.90
52495;DHT22;38405;53.212;5.660;2022-10-19T14:34:45;13.70;99.90
52495;DHT22;38405;53.212;5.660;2022-10-19T14:37:19;13.60;99.90
52495;DHT22;38405;53.212;5.660;2022-10-19T14:42:46;13.40;99.90
52495;DHT22;38405;53.212;5.660;2022-10-19T14:45:19;13.30;99.90
52495;DHT22;38405;53.212;5.660;2022-10-19T14:50:26;13.20;99.90
52495;DHT22;38405;53.212;5.660;2022-10-19T14:52:56;13.10;99.90
52495;DHT22;38405;53.212;5.660;2022-10-19T14:55:23;13.10;99.90
52495;DHT22;38405;53.212;5.660;2022-10-19T14:57:52;13.00;99.90
52495;DHT22;38405;53.212;5.660;2022-10-19T15:00:20;13.20;99.90
52495;DHT22;38405;53.212;5.660;2022-10-19T15:03:05;13.00;99.90
52495;DHT22;38405;53.212;5.660;2022-10-19T15:05:35;12.90;99.90
52495;DHT22;38405;53.212;5.660;2022-10-19T15:08:13;12.90;99.90
52495;DHT22;38405;53.212;5.660;2022-10-19T15:10:43;12.80;99.90
52495;DHT22;38405;53.212;5.660;2022-10-19T15:13:38;12.80;99.90
52495;DHT22;38405;53.212;5.660;2022-10-19T15:16:05;12.70;99.90
52495;DHT22;38405;53.212;5.660;2022-10-19T15:18:37;12.70;99.90
52495;DHT22;38405;53.212;5.660;2022-10-19T15:21:17;12.70;99.90
52495;DHT22;38405;53.212;5.660;2022-10-19T15:23:50;12.60;99.90
52495;DHT22;38405;53.212;5.660;2022-10-19T15:28:50;12.50;99.90
52495;DHT22;38405;53.212;5.660;2022-10-19T15:31:18;12.60;99.90
52495;DHT22;38405;53.212;5.660;2022-10-19T15:33:51;12.40;99.90
52495;DHT22;38405;53.212;5.660;2022-10-19T15:36:19;12.40;99.90
52495;DHT22;38405;53.212;5.660;2022-10-19T15:38:47;12.40;99.90
52495;DHT22;38405;53.212;5.660;2022-10-19T15:41:24;12.30;99.90
52495;DHT22;38405;53.212;5.660;2022-10-19T15:43:52;12.30;99.90
52495;DHT22;38405;53.212;5.660;2022-10-19T15:51:49;12.00;99.90
52495;DHT22;38405;53.212;5.660;2022-10-19T15:54:16;12.00;99.90
52495;DHT22;38405;53.212;5.660;2022-10-19T15:56:45;11.90;99.90
52495;DHT22;38405;53.212;5.660;2022-10-19T15:59:19;11.80;99.90
52495;DHT22;38405;53.212;5.660;2022-10-19T16:01:46;11.70;99.90
52495;DHT22;38405;53.212;5.660;2022-10-19T16:04:13;11.70;99.90
52495;DHT22;38405;53.212;5.660;2022-10-19T16:06:41;11.70;99.90
52495;DHT22;38405;53.212;5.660;2022-10-19T16:09:17;11.60;99.90
52495;DHT22;38405;53.212;5.660;2022-10-19T16:11:43;11.50;99.90
52495;DHT22;38405;53.212;5.660;2022-10-19T16:14:09;11.40;99.90
52495;DHT22;38405;53.212;5.660;2022-10-19T16:16:35;11.30;99.90
52495;DHT22;38405;53.212;5.660;2022-10-19T16:19:00;11.30;99.90
52495;DHT22;38405;53.212;5.660;2022-10-19T16:21:30;11.20;99.90
52495;DHT22;38405;53.212;5.660;2022-10-19T16:23:56;11.10;99.90
52495;DHT22;38405;53.212;5.660;2022-10-19T16:26:22;11.00;99.90
52495;DHT22;38405;53.212;5.660;2022-10-19T16:28:50;11.50;99.90
52495;DHT22;38405;53.212;5.660;2022-10-19T16:31:16;10.80;99.90
52495;DHT22;38405;53.212;5.660;2022-10-19T16:33:42;10.80;99.90
52495;DHT22;38405;53.212;5.660;2022-10-19T16:36:13;10.80;99.90
52495;DHT22;38405;53.212;5.660;2022-10-19T16:38:39;10.60;99.90
52495;DHT22;38405;53.212;5.660;2022-10-19T16:41:07;10.50;99.90
52495;DHT22;38405;53.212;5.660;2022-10-19T16:43:33;10.40;99.90
52495;DHT22;38405;53.212;5.660;2022-10-19T16:45:59;11.00;99.90
52495;DHT22;38405;53.212;5.660;2022-10-19T16:48:25;10.30;99.90
52495;DHT22;38405;53.212;5.660;2022-10-19T16:53:33;10.20;99.90
52495;DHT22;38405;53.212;5.660;2022-10-19T16:56:08;10.10;99.90
52495;DHT22;38405;53.212;5.660;2022-10-19T16:58:34;10.10;99.90
52495;DHT22;38405;53.212;5.660;2022-10-19T17:01:14;10.00;99.90
52495;DHT22;38405;53.212;5.660;2022-10-19T17:03:41;10.00;99.90
52495;DHT22;38405;53.212;5.660;2022-10-19T17:06:07;9.90;99.90
52495;DHT22;38405;53.212;5.660;2022-10-19T17:08:33;9.80;99.90
52495;DHT22;38405;53.212;5.660;2022-10-19T17:11:23;10.20;99.90
52495;DHT22;38405;53.212;5.660;2022-10-19T17:13:50;9.80;99.90
52495;DHT22;38405;53.212;5.660;2022-10-19T17:16:18;9.70;99.90
52495;DHT22;38405;53.212;5.660;2022-10-19T17:18:44;9.70;99.90
52495;DHT22;38405;53.212;5.660;2022-10-19T17:21:16;9.70;99.90
52495;DHT22;38405;53.212;5.660;2022-10-19T17:23:42;9.70;99.90
52495;DHT22;38405;53.212;5.660;2022-10-19T17:26:08;10.50;99.90
52495;DHT22;38405;53.212;5.660;2022-10-19T17:28:35;9.60;99.90
52495;DHT22;38405;53.212;5.660;2022-10-19T17:31:04;9.60;99.90
52495;DHT22;38405;53.212;5.660;2022-10-19T17:33:34;9.70;99.90
52495;DHT22;38405;53.212;5.660;2022-10-19T17:36:11;9.60;99.90
52495;DHT22;38405;53.212;5.660;2022-10-19T17:38:37;9.70;99.90
52495;DHT22;38405;53.212;5.660;2022-10-19T17:41:15;10.00;99.90
52495;DHT22;38405;53.212;5.660;2022-10-19T17:43:42;9.70;99.90
52495;DHT22;38405;53.212;5.660;2022-10-19T17:46:10;9.60;99.90
52495;DHT22;38405;53.212;5.660;2022-10-19T17:48:37;9.60;99.90
52495;DHT22;38405;53.212;5.660;2022-10-19T17:51:06;9.90;99.90
52495;DHT22;38405;53.212;5.660;2022-10-19T17:53:32;10.00;99.90
52495;DHT22;38405;53.212;5.660;2022-10-19T17:56:04;9.70;99.90
52495;DHT22;38405;53.212;5.660;2022-10-19T17:58:30;9.80;99.90
52495;DHT22;38405;53.212;5.660;2022-10-19T18:00:57;9.80;99.90
52495;DHT22;38405;53.212;5.660;2022-10-19T18:03:25;9.80;99.90
52495;DHT22;38405;53.212;5.660;2022-10-19T18:05:59;10.10;99.90
52495;DHT22;38405;53.212;5.660;2022-10-19T18:08:26;9.80;99.90
52495;DHT22;38405;53.212;5.660;2022-10-19T18:10:59;9.80;99.90
52495;DHT22;38405;53.212;5.660;2022-10-19T18:13:26;9.80;99.90
52495;DHT22;38405;53.212;5.660;2022-10-19T18:15:52;9.70;99.90
52495;DHT22;38405;53.212;5.660;2022-10-19T18:18:18;9.70;99.90
52495;DHT22;38405;53.212;5.660;2022-10-19T18:20:44;9.70;99.90
52495;DHT22;38405;53.212;5.660;2022-10-19T18:23:10;9.60;99.90